KILG

New Castle Airport

Wilmington, Delaware, USA
KILG 261123Z 2612/2712 31012G20KT P6SM BKN250 FM261900 28010KT P6SM FEW250 FM270000 25006KT P6SM SCT250 FM270500 VRB02KT P6SM BKN150 FM271100 10004KT P6SM VCSH OVC060
Issued Valid From Valid To
Apr-26 @ 11:23 UTC
(2 hours ago)
Apr-26 @ 12:00 UTC
(an hour ago)
Apr-27 @ 12:00 UTC
(in 23 hours)
Apr-26 @ 12:00 to Apr-26 @ 19:00
KILG 261123Z 2612/2712 31012G20KT P6SM BKN250
Wind Visibility Clouds
310° at 12 knots
 Gusting to 20 knots
Greater than 6 miles
  • Broken at 25,000' AGL
From Apr-26 @ 19:00 to Apr-27 @ 00:00
FM261900 28010KT P6SM FEW250
Wind Visibility Clouds
280° at 10 knots Greater than 6 miles
  • Few at 25,000' AGL
From Apr-27 @ 00:00 to Apr-27 @ 05:00
FM270000 25006KT P6SM SCT250
Wind Visibility Clouds
250° at 6 knots Greater than 6 miles
  • Scattered at 25,000' AGL
From Apr-27 @ 05:00 to Apr-27 @ 11:00
FM270500 VRB02KT P6SM BKN150
Wind Visibility Clouds
Variable at 2 knots Greater than 6 miles
  • Broken at 15,000' AGL
From Apr-27 @ 11:00 to Apr-27 @ 12:00
FM271100 10004KT P6SM VCSH OVC060
Wind Visibility Clouds
100° at 4 knots Greater than 6 miles
  • Overcast at 6,000' AGL
KILG 261123Z 2612/2712 31012G20KT P6SM BKN250 FM261900 28010KT P6SM FEW250 FM270000 25006KT P6SM SCT250 FM270500 VRB02KT P6SM BKN150 FM271100 10004KT P6SM VCSH OVC060
Issued Apr-26 @ 11:23 UTC
(2 hours ago)
Valid From Apr-26 @ 12:00 UTC
(an hour ago)
Valid To Apr-27 @ 12:00 UTC
(in 23 hours)
Apr-26 @ 12:00 - Apr-26 @ 19:00
Wind Visibility
310° at 12 knots
 Gusting to 20 knots
Greater than 6 miles
Clouds
  • Broken at 25,000' AGL
From Apr-26 @ 19:00 - Apr-27 @ 00:00
Wind Visibility
280° at 10 knots Greater than 6 miles
Clouds
  • Few at 25,000' AGL
From Apr-27 @ 00:00 - Apr-27 @ 05:00
Wind Visibility
250° at 6 knots Greater than 6 miles
Clouds
  • Scattered at 25,000' AGL
From Apr-27 @ 05:00 - Apr-27 @ 11:00
Wind Visibility
Variable at 2 knots Greater than 6 miles
Clouds
  • Broken at 15,000' AGL
From Apr-27 @ 11:00 - Apr-27 @ 12:00
Wind Visibility
100° at 4 knots Greater than 6 miles
Clouds
  • Overcast at 6,000' AGL